createdAt,value
2022-08-28T00:01:45.719Z,85.00
2022-08-28T00:04:12.419Z,84.90
2022-08-28T00:06:39.303Z,84.90
2022-08-28T00:09:05.990Z,85.00
2022-08-28T00:11:32.665Z,85.00
2022-08-28T00:14:00.907Z,84.90
2022-08-28T00:16:28.021Z,85.00
2022-08-28T00:18:54.804Z,85.00
2022-08-28T00:21:21.778Z,85.00
2022-08-28T00:23:48.585Z,85.00
2022-08-28T00:26:35.230Z,84.90
2022-08-28T00:29:03.975Z,84.90
2022-08-28T00:31:30.843Z,85.00
2022-08-28T00:33:57.555Z,85.00
2022-08-28T00:36:24.368Z,85.00
2022-08-28T00:38:51.062Z,85.10
2022-08-28T00:41:17.759Z,85.00
2022-08-28T00:44:04.853Z,85.00
2022-08-28T00:46:31.557Z,85.00
2022-08-28T00:48:58.338Z,85.00
2022-08-28T00:51:43.754Z,85.10
2022-08-28T00:54:10.588Z,85.00
2022-08-28T00:56:38.349Z,85.00
2022-08-28T00:59:07.299Z,85.00
2022-08-28T01:01:34.111Z,85.20
2022-08-28T01:04:02.342Z,85.20
2022-08-28T01:06:28.985Z,85.20
2022-08-28T01:08:56.018Z,85.10
2022-08-28T01:11:25.877Z,85.10
2022-08-28T01:13:54.531Z,85.20
2022-08-28T01:16:23.040Z,85.20
2022-08-28T01:18:57.426Z,85.20
2022-08-28T01:21:47.165Z,85.20
2022-08-28T01:24:16.039Z,85.10
2022-08-28T01:26:43.282Z,85.10
2022-08-28T01:29:11.476Z,85.20
2022-08-28T01:31:38.707Z,85.20
2022-08-28T01:34:09.607Z,85.60
2022-08-28T01:36:36.338Z,85.20
2022-08-28T01:39:07.266Z,85.20
2022-08-28T01:41:35.478Z,85.00
2022-08-28T01:44:02.182Z,85.10
2022-08-28T01:46:31.241Z,85.00
2022-08-28T01:48:58.006Z,85.00
2022-08-28T01:51:24.878Z,84.90
2022-08-28T01:53:51.874Z,84.70
2022-08-28T01:56:19.375Z,84.70
2022-08-28T01:58:48.117Z,84.70
2022-08-28T02:01:20.354Z,84.60
2022-08-28T02:03:47.463Z,84.60
2022-08-28T02:06:15.518Z,84.40
2022-08-28T02:08:42.370Z,84.50
2022-08-28T02:11:09.206Z,84.40
2022-08-28T02:13:36.902Z,84.40
2022-08-28T02:16:04.830Z,84.50
2022-08-28T02:18:31.638Z,84.30
2022-08-28T02:20:58.381Z,84.30
2022-08-28T02:23:25.101Z,84.30
2022-08-28T02:25:51.828Z,84.20
2022-08-28T02:28:18.492Z,84.30
2022-08-28T02:30:45.352Z,84.20
2022-08-28T02:33:12.050Z,84.20
2022-08-28T02:35:40.491Z,84.20
2022-08-28T02:38:10.417Z,84.10
2022-08-28T02:40:38.338Z,84.20
2022-08-28T02:43:05.554Z,84.10
2022-08-28T02:45:32.810Z,84.10
2022-08-28T02:48:01.557Z,84.00
2022-08-28T02:50:29.286Z,84.00
2022-08-28T02:52:56.055Z,84.00
2022-08-28T02:55:24.663Z,84.00
2022-08-28T02:57:51.565Z,84.00
2022-08-28T03:00:20.391Z,84.00
2022-08-28T03:02:47.316Z,84.00
2022-08-28T03:05:15.215Z,84.00
2022-08-28T03:07:42.766Z,84.00
2022-08-28T03:10:09.897Z,84.00
2022-08-28T03:12:38.275Z,84.70
2022-08-28T03:15:06.197Z,84.00
2022-08-28T03:17:32.948Z,84.00
2022-08-28T03:20:00.327Z,84.00
2022-08-28T03:22:45.577Z,84.00
2022-08-28T03:25:12.810Z,84.00
2022-08-28T03:27:39.485Z,84.00
2022-08-28T03:30:07.900Z,84.00
2022-08-28T03:32:34.962Z,84.00
2022-08-28T03:35:02.192Z,84.00
2022-08-28T03:37:28.884Z,84.00
2022-08-28T03:39:55.685Z,84.00
2022-08-28T03:42:23.070Z,84.00
2022-08-28T03:44:49.966Z,84.10
2022-08-28T03:47:16.870Z,84.00
2022-08-28T03:49:45.380Z,84.00
2022-08-28T03:52:12.550Z,84.00
2022-08-28T03:54:39.311Z,84.00
2022-08-28T03:57:07.198Z,84.00
2022-08-28T03:59:35.348Z,84.00
2022-08-28T04:02:02.071Z,84.00
2022-08-28T04:04:28.842Z,84.00
2022-08-28T04:06:55.602Z,84.10
2022-08-28T04:09:22.295Z,84.00
2022-08-28T04:11:48.968Z,84.00
2022-08-28T04:14:15.625Z,84.00
2022-08-28T04:16:42.912Z,84.00
2022-08-28T04:19:09.815Z,84.00
2022-08-28T04:21:44.092Z,83.90
2022-08-28T04:24:13.199Z,83.90
2022-08-28T04:26:40.164Z,83.90
2022-08-28T04:29:07.285Z,84.00
2022-08-28T04:31:34.743Z,83.90
2022-08-28T04:34:02.195Z,83.90
2022-08-28T04:36:29.250Z,83.90
2022-08-28T04:38:57.006Z,83.90
2022-08-28T04:41:23.739Z,83.90
2022-08-28T04:43:52.735Z,83.90
2022-08-28T04:46:19.597Z,83.90
2022-08-28T04:48:46.347Z,83.90
2022-08-28T04:51:15.000Z,83.90
2022-08-28T04:53:42.110Z,83.90
2022-08-28T04:56:10.449Z,83.90
2022-08-28T04:58:38.207Z,83.90
2022-08-28T05:01:07.300Z,83.90
2022-08-28T05:03:34.114Z,83.90
2022-08-28T05:06:01.162Z,83.90
2022-08-28T05:08:29.551Z,83.90
2022-08-28T05:10:56.339Z,83.90
2022-08-28T05:13:23.377Z,83.90
2022-08-28T05:15:51.017Z,83.90
2022-08-28T05:18:19.323Z,84.80
2022-08-28T05:20:47.219Z,83.80
2022-08-28T05:23:15.548Z,83.80
2022-08-28T05:25:44.453Z,83.80
2022-08-28T05:28:12.296Z,83.70
2022-08-28T05:30:39.513Z,83.80
2022-08-28T05:33:07.974Z,83.80
2022-08-28T05:35:38.832Z,83.80
2022-08-28T05:38:06.174Z,83.90
2022-08-28T05:40:33.358Z,83.70
2022-08-28T05:43:00.138Z,83.60
2022-08-28T05:45:26.788Z,83.60
2022-08-28T05:47:54.039Z,83.70
2022-08-28T05:50:20.756Z,83.70
2022-08-28T05:52:47.604Z,83.50
2022-08-28T05:55:14.601Z,83.30
2022-08-28T05:57:41.825Z,83.40
2022-08-28T06:00:13.783Z,83.40
2022-08-28T06:02:41.945Z,83.30
2022-08-28T06:05:12.917Z,83.30
2022-08-28T06:07:40.984Z,83.20
2022-08-28T06:10:10.594Z,83.20
2022-08-28T06:12:37.741Z,83.20
2022-08-28T06:15:06.025Z,83.10
2022-08-28T06:17:32.730Z,83.10
2022-08-28T06:19:59.446Z,83.10
2022-08-28T06:22:26.145Z,83.00
2022-08-28T06:24:53.969Z,83.00
2022-08-28T06:27:20.770Z,83.00
2022-08-28T06:29:47.393Z,82.90
2022-08-28T06:32:14.671Z,83.20
2022-08-28T06:34:41.734Z,82.90
2022-08-28T06:37:09.866Z,82.90
2022-08-28T06:39:36.558Z,82.90
2022-08-28T06:42:03.423Z,82.90
2022-08-28T06:44:32.164Z,82.90
2022-08-28T06:46:59.120Z,82.80
2022-08-28T06:49:25.841Z,83.60
2022-08-28T06:51:52.785Z,82.90
2022-08-28T06:54:22.798Z,82.90
2022-08-28T06:56:51.062Z,83.00
2022-08-28T06:59:17.843Z,83.00
2022-08-28T07:01:44.671Z,83.00
2022-08-28T07:04:11.964Z,82.90
2022-08-28T07:06:41.796Z,83.00
2022-08-28T07:09:11.284Z,82.90
2022-08-28T07:11:38.683Z,83.10
2022-08-28T07:14:05.639Z,83.00
2022-08-28T07:16:34.408Z,82.90
2022-08-28T07:19:04.475Z,83.10
2022-08-28T07:21:32.696Z,83.10
2022-08-28T07:24:05.170Z,83.50
2022-08-28T07:26:31.909Z,82.90
2022-08-28T07:29:10.450Z,83.00
2022-08-28T07:31:39.769Z,83.00
2022-08-28T07:34:06.435Z,83.00
2022-08-28T07:36:33.106Z,83.20
2022-08-28T07:39:00.094Z,82.90
2022-08-28T07:41:28.714Z,82.90
2022-08-28T07:44:14.169Z,82.90
2022-08-28T07:46:41.595Z,82.90
2022-08-28T07:49:09.147Z,82.90
2022-08-28T07:51:35.891Z,83.00
2022-08-28T07:54:04.039Z,82.90
2022-08-28T07:56:31.126Z,82.80
2022-08-28T07:58:58.499Z,82.90
2022-08-28T08:01:26.188Z,82.80
2022-08-28T08:03:57.729Z,82.90
2022-08-28T08:06:33.876Z,82.90
2022-08-28T08:09:02.178Z,82.80
2022-08-28T08:11:32.201Z,82.80
2022-08-28T08:14:05.347Z,82.80
2022-08-28T08:16:34.694Z,82.80
2022-08-28T08:19:02.306Z,82.80
2022-08-28T08:21:30.561Z,82.80
2022-08-28T08:23:58.610Z,82.70
2022-08-28T08:26:26.557Z,82.70
2022-08-28T08:28:53.713Z,82.70
2022-08-28T08:31:24.800Z,82.60
2022-08-28T08:33:52.620Z,82.60
2022-08-28T08:36:20.830Z,82.50
2022-08-28T08:38:47.573Z,81.60
2022-08-28T08:41:20.242Z,81.30
2022-08-28T08:43:49.671Z,81.10
2022-08-28T08:46:16.717Z,80.70
2022-08-28T08:48:44.417Z,80.80
2022-08-28T08:51:15.501Z,80.70
2022-08-28T08:53:50.687Z,80.50
2022-08-28T08:56:34.861Z,80.70
2022-08-28T08:59:03.342Z,80.50
2022-08-28T09:01:36.871Z,81.00
2022-08-28T09:04:09.425Z,80.80
2022-08-28T09:06:47.393Z,81.00
2022-08-28T09:09:18.690Z,81.20
2022-08-28T09:11:57.902Z,81.10
2022-08-28T09:14:35.462Z,81.20
2022-08-28T09:17:02.756Z,81.30
2022-08-28T09:19:29.490Z,81.70
2022-08-28T09:21:56.534Z,81.40
2022-08-28T09:24:23.254Z,81.40
2022-08-28T09:26:58.557Z,81.30
2022-08-28T09:29:33.785Z,81.30
2022-08-28T09:32:19.322Z,81.40
2022-08-28T09:35:00.435Z,81.30
2022-08-28T09:37:27.564Z,81.30
2022-08-28T09:40:13.446Z,82.50
2022-08-28T09:42:58.579Z,81.30
2022-08-28T09:45:27.103Z,81.40
2022-08-28T09:47:57.756Z,81.20
2022-08-28T09:50:27.470Z,81.50
2022-08-28T09:52:55.557Z,81.70
2022-08-28T09:55:29.590Z,81.60
2022-08-28T09:57:56.599Z,81.50
2022-08-28T10:00:23.473Z,81.60
2022-08-28T10:02:58.157Z,81.60
2022-08-28T10:05:37.528Z,81.70
2022-08-28T10:08:08.459Z,81.80
2022-08-28T10:10:53.631Z,81.70
2022-08-28T10:13:27.575Z,81.70
2022-08-28T10:15:54.245Z,81.70
2022-08-28T10:18:39.222Z,81.90
2022-08-28T10:21:13.634Z,81.90
2022-08-28T10:23:43.331Z,81.50
2022-08-28T10:26:28.773Z,82.00
2022-08-28T10:28:58.576Z,81.90
2022-08-28T10:31:39.171Z,81.90
2022-08-28T10:34:31.958Z,82.00
2022-08-28T10:37:09.484Z,81.90
2022-08-28T10:39:54.076Z,82.00
2022-08-28T10:42:36.346Z,82.10
2022-08-28T10:45:06.859Z,82.20
2022-08-28T10:47:36.443Z,82.30
2022-08-28T10:50:16.332Z,82.20
2022-08-28T10:52:47.807Z,82.10
2022-08-28T10:55:37.559Z,82.10
2022-08-28T10:58:24.128Z,82.00
2022-08-28T11:00:56.628Z,82.00
2022-08-28T11:03:34.285Z,82.00
2022-08-28T11:06:05.788Z,82.10
2022-08-28T11:08:34.153Z,82.00
2022-08-28T11:11:01.981Z,82.00
2022-08-28T11:13:44.398Z,82.00
2022-08-28T11:16:19.937Z,82.00
2022-08-28T11:18:53.072Z,82.10
2022-08-28T11:21:19.838Z,82.10
2022-08-28T11:23:53.764Z,82.10
2022-08-28T11:26:30.440Z,82.20
2022-08-28T11:28:59.529Z,82.20
2022-08-28T11:31:28.984Z,82.30
2022-08-28T11:33:58.966Z,82.20
2022-08-28T11:36:27.658Z,82.30
2022-08-28T11:38:54.377Z,82.30
2022-08-28T11:41:22.545Z,82.40
2022-08-28T11:43:50.802Z,82.40
2022-08-28T11:46:47.471Z,82.30
2022-08-28T11:49:26.616Z,82.30
2022-08-28T11:51:53.307Z,82.40
2022-08-28T11:54:29.190Z,82.30
2022-08-28T11:57:06.050Z,82.30
2022-08-28T11:59:35.436Z,82.30
2022-08-28T12:02:21.113Z,82.30
2022-08-28T12:04:47.927Z,82.30
2022-08-28T12:07:16.497Z,82.30
2022-08-28T12:09:47.740Z,82.40
2022-08-28T12:12:20.643Z,82.40
2022-08-28T12:14:47.339Z,82.40
2022-08-28T12:17:23.981Z,82.50
2022-08-28T12:19:58.591Z,82.40
2022-08-28T12:22:26.666Z,82.40
2022-08-28T12:25:07.104Z,82.50
2022-08-28T12:27:36.523Z,82.50
2022-08-28T12:30:03.605Z,82.40
2022-08-28T12:32:30.256Z,82.40
2022-08-28T12:35:00.048Z,82.40
2022-08-28T12:37:39.626Z,82.40
2022-08-28T12:40:26.391Z,82.40
2022-08-28T12:43:00.810Z,82.50
2022-08-28T12:45:27.547Z,82.50
2022-08-28T12:47:56.811Z,82.50
2022-08-28T12:50:36.212Z,82.40
2022-08-28T12:53:06.368Z,82.40
2022-08-28T12:55:33.618Z,82.40
2022-08-28T12:58:00.535Z,82.40
2022-08-28T13:00:32.988Z,82.50
2022-08-28T13:03:00.012Z,82.40
2022-08-28T13:05:39.825Z,82.50
2022-08-28T13:08:08.442Z,82.40
2022-08-28T13:10:47.234Z,82.50
2022-08-28T13:13:22.039Z,82.50
2022-08-28T13:15:48.781Z,82.50
2022-08-28T13:18:33.802Z,82.40
2022-08-28T13:21:24.596Z,82.40
2022-08-28T13:24:01.391Z,82.40
2022-08-28T13:26:33.304Z,82.20
2022-08-28T13:29:03.519Z,82.10
2022-08-28T13:31:32.282Z,82.10
2022-08-28T13:34:22.039Z,82.00
2022-08-28T13:36:52.570Z,81.90
2022-08-28T13:39:19.891Z,81.80
2022-08-28T13:41:47.684Z,81.80
2022-08-28T13:44:24.433Z,81.60
2022-08-28T13:46:51.107Z,81.70
2022-08-28T13:49:18.547Z,81.60
2022-08-28T13:51:45.224Z,81.50
2022-08-28T13:54:11.929Z,81.40
2022-08-28T13:56:39.982Z,81.50
2022-08-28T13:59:06.630Z,81.40
2022-08-28T14:01:52.078Z,81.30
2022-08-28T14:04:18.885Z,81.30
2022-08-28T14:06:45.538Z,81.20
2022-08-28T14:09:15.334Z,81.30
2022-08-28T14:11:45.327Z,81.40
2022-08-28T14:14:12.333Z,81.40
2022-08-28T14:16:40.025Z,81.40
2022-08-28T14:19:06.865Z,81.30
2022-08-28T14:21:34.563Z,81.30
2022-08-28T14:24:01.434Z,81.20
2022-08-28T14:26:28.462Z,81.30
2022-08-28T14:28:55.581Z,82.00
2022-08-28T14:31:24.682Z,81.30
2022-08-28T14:33:53.359Z,81.20
2022-08-28T14:36:21.786Z,81.30
2022-08-28T14:38:49.673Z,81.30
2022-08-28T14:41:18.466Z,81.40
2022-08-28T14:43:45.353Z,81.40
2022-08-28T14:46:16.064Z,81.30
2022-08-28T14:48:42.867Z,81.30
2022-08-28T14:51:09.605Z,81.30
2022-08-28T14:53:37.125Z,81.30
2022-08-28T14:56:05.591Z,81.30
2022-08-28T14:58:33.739Z,81.30
2022-08-28T15:01:00.570Z,81.30
2022-08-28T15:03:27.557Z,81.40
2022-08-28T15:06:01.825Z,81.20
2022-08-28T15:08:28.517Z,81.30
2022-08-28T15:10:55.235Z,81.30
2022-08-28T15:13:21.972Z,81.40
2022-08-28T15:15:49.867Z,81.30
2022-08-28T15:18:16.555Z,81.30
2022-08-28T15:20:45.011Z,81.20
2022-08-28T15:23:12.652Z,81.30
2022-08-28T15:25:39.811Z,81.20
2022-08-28T15:28:06.792Z,81.30
2022-08-28T15:30:33.987Z,81.30
2022-08-28T15:33:01.034Z,81.30
2022-08-28T15:35:27.701Z,81.40
2022-08-28T15:37:54.337Z,81.50
2022-08-28T15:40:39.984Z,81.40
2022-08-28T15:43:06.922Z,81.30
2022-08-28T15:45:36.914Z,81.10
2022-08-28T15:48:03.858Z,81.30
2022-08-28T15:50:30.603Z,81.20
2022-08-28T15:52:57.689Z,81.20
2022-08-28T15:55:25.679Z,81.20
2022-08-28T15:57:52.415Z,81.30
2022-08-28T16:00:19.173Z,81.40
2022-08-28T16:02:45.851Z,81.60
2022-08-28T16:05:12.646Z,81.50
2022-08-28T16:07:39.837Z,81.40
2022-08-28T16:10:07.469Z,82.00
2022-08-28T16:12:34.483Z,81.50
2022-08-28T16:15:01.249Z,81.50
2022-08-28T16:17:27.939Z,81.50
2022-08-28T16:19:55.535Z,81.50
2022-08-28T16:22:22.198Z,81.50
2022-08-28T16:24:49.089Z,81.50
2022-08-28T16:27:16.524Z,81.50
2022-08-28T16:29:44.518Z,81.50
2022-08-28T16:32:11.790Z,81.60
2022-08-28T16:34:38.966Z,81.60
2022-08-28T16:37:07.937Z,82.20
2022-08-28T16:39:35.386Z,81.60
2022-08-28T16:42:02.103Z,81.70
2022-08-28T16:44:28.934Z,81.70
2022-08-28T16:46:55.863Z,81.70
2022-08-28T16:49:23.646Z,81.70
2022-08-28T16:51:50.530Z,81.70
2022-08-28T16:54:21.547Z,81.60
2022-08-28T16:56:48.341Z,81.70
2022-08-28T16:59:20.496Z,82.30
2022-08-28T17:01:52.982Z,81.60
2022-08-28T17:04:20.943Z,81.60
2022-08-28T17:06:47.643Z,81.60
2022-08-28T17:09:14.354Z,81.60
2022-08-28T17:11:41.101Z,81.60
2022-08-28T17:14:09.099Z,81.60
2022-08-28T17:16:35.840Z,81.60
2022-08-28T17:19:02.555Z,81.60
2022-08-28T17:21:48.061Z,81.80
2022-08-28T17:24:14.796Z,81.60
2022-08-28T17:26:42.389Z,81.60
2022-08-28T17:29:09.408Z,81.60
2022-08-28T17:31:36.270Z,81.70
2022-08-28T17:34:03.021Z,81.70
2022-08-28T17:36:33.059Z,81.70
2022-08-28T17:39:01.719Z,81.70
2022-08-28T17:41:28.528Z,81.70
2022-08-28T17:43:55.231Z,81.80
2022-08-28T17:46:22.220Z,81.80
2022-08-28T17:48:54.477Z,81.90
2022-08-28T17:51:33.674Z,81.90
2022-08-28T17:54:14.958Z,81.80
2022-08-28T17:56:41.716Z,81.80
2022-08-28T17:59:08.445Z,81.80
2022-08-28T18:01:36.026Z,81.80
2022-08-28T18:04:02.998Z,81.60
2022-08-28T18:06:29.726Z,81.40
2022-08-28T18:08:56.470Z,81.70
2022-08-28T18:11:23.666Z,80.80
2022-08-28T18:13:50.425Z,80.50
2022-08-28T18:16:17.272Z,80.70
2022-08-28T18:18:44.030Z,80.50
2022-08-28T18:21:11.143Z,80.40
2022-08-28T18:23:39.651Z,80.20
2022-08-28T18:26:07.363Z,80.10
2022-08-28T18:28:34.194Z,80.00
2022-08-28T18:31:01.174Z,80.00
2022-08-28T18:33:28.014Z,80.00
2022-08-28T18:35:55.028Z,80.00
2022-08-28T18:38:22.244Z,80.00
2022-08-28T18:40:49.730Z,80.00
2022-08-28T18:43:20.221Z,79.90
2022-08-28T18:45:47.023Z,80.00
2022-08-28T18:48:14.222Z,80.00
2022-08-28T18:50:46.145Z,80.00
2022-08-28T18:53:14.307Z,80.00
2022-08-28T18:55:41.031Z,80.00
2022-08-28T18:58:07.721Z,80.00
2022-08-28T19:00:37.132Z,80.00
2022-08-28T19:03:04.404Z,80.20
2022-08-28T19:05:31.265Z,80.10
2022-08-28T19:08:00.442Z,80.10
2022-08-28T19:10:34.124Z,80.10
2022-08-28T19:13:01.711Z,80.10
2022-08-28T19:15:29.028Z,80.10
2022-08-28T19:17:56.154Z,80.10
2022-08-28T19:20:22.897Z,80.10
2022-08-28T19:22:49.778Z,80.20
2022-08-28T19:25:28.217Z,80.20
2022-08-28T19:27:59.071Z,80.30
2022-08-28T19:30:26.701Z,80.20
2022-08-28T19:32:53.491Z,80.30
2022-08-28T19:35:22.249Z,80.30
2022-08-28T19:37:54.441Z,80.40
2022-08-28T19:40:21.744Z,80.40
2022-08-28T19:42:49.879Z,80.40
2022-08-28T19:45:16.982Z,80.50
2022-08-28T19:47:43.774Z,80.50
2022-08-28T19:50:11.322Z,80.70
2022-08-28T19:52:38.180Z,80.70
2022-08-28T19:55:05.965Z,80.80
2022-08-28T19:57:33.093Z,80.70
2022-08-28T20:00:00.247Z,80.70
2022-08-28T20:02:28.543Z,80.80
2022-08-28T20:04:55.667Z,81.50
2022-08-28T20:07:24.938Z,80.80
2022-08-28T20:09:52.300Z,80.70
2022-08-28T20:12:19.488Z,80.70
2022-08-28T20:14:46.323Z,80.80
2022-08-28T20:17:13.939Z,80.80
2022-08-28T20:19:41.234Z,80.80
2022-08-28T20:22:08.024Z,80.80
2022-08-28T20:24:35.022Z,80.80
2022-08-28T20:27:02.045Z,80.90
2022-08-28T20:29:29.248Z,80.90
2022-08-28T20:31:56.331Z,80.90
2022-08-28T20:34:24.029Z,80.90
2022-08-28T20:36:50.781Z,81.00
2022-08-28T20:39:18.286Z,81.00
2022-08-28T20:41:45.987Z,81.00
2022-08-28T20:44:14.390Z,80.90
2022-08-28T20:46:42.148Z,80.90
2022-08-28T20:49:13.707Z,81.00
2022-08-28T20:51:52.857Z,81.00
2022-08-28T20:54:24.114Z,81.00
2022-08-28T20:56:52.230Z,81.00
2022-08-28T20:59:19.517Z,81.00
2022-08-28T21:01:46.405Z,81.00
2022-08-28T21:04:13.163Z,81.50
2022-08-28T21:06:39.890Z,81.10
2022-08-28T21:09:06.561Z,81.10
2022-08-28T21:11:33.643Z,80.90
2022-08-28T21:14:00.333Z,81.10
2022-08-28T21:16:27.217Z,80.90
2022-08-28T21:19:14.721Z,80.70
2022-08-28T21:21:41.236Z,80.70
2022-08-28T21:24:09.680Z,80.70
2022-08-28T21:26:37.561Z,80.60
2022-08-28T21:29:05.196Z,80.50
2022-08-28T21:31:32.209Z,80.50
2022-08-28T21:33:59.352Z,80.40
2022-08-28T21:36:26.229Z,80.40
2022-08-28T21:38:52.949Z,80.30
2022-08-28T21:41:19.729Z,80.20
2022-08-28T21:43:46.883Z,80.20
2022-08-28T21:46:14.751Z,80.20
2022-08-28T21:48:41.773Z,80.30
2022-08-28T21:51:12.766Z,80.20
2022-08-28T21:53:40.188Z,80.20
2022-08-28T21:56:07.492Z,80.20
2022-08-28T21:58:34.745Z,80.10
2022-08-28T22:01:01.824Z,80.80
2022-08-28T22:03:29.106Z,80.20
2022-08-28T22:05:55.934Z,80.10
2022-08-28T22:08:23.546Z,80.20
2022-08-28T22:10:50.578Z,80.30
2022-08-28T22:13:17.562Z,80.30
2022-08-28T22:15:45.270Z,80.30
2022-08-28T22:18:13.541Z,80.20
2022-08-28T22:21:01.528Z,80.30
2022-08-28T22:23:29.539Z,80.30
2022-08-28T22:25:56.178Z,80.30
2022-08-28T22:28:22.849Z,80.20
2022-08-28T22:30:49.526Z,80.20
2022-08-28T22:33:16.353Z,80.10
2022-08-28T22:35:43.091Z,80.70
2022-08-28T22:38:11.202Z,80.20
2022-08-28T22:40:37.995Z,80.30
2022-08-28T22:43:04.819Z,80.20
2022-08-28T22:45:31.557Z,80.20
2022-08-28T22:47:58.322Z,80.30
2022-08-28T22:50:25.022Z,80.20
2022-08-28T22:52:51.717Z,80.30
2022-08-28T22:55:19.748Z,80.30
2022-08-28T22:57:46.973Z,80.30
2022-08-28T23:00:16.210Z,80.30
2022-08-28T23:02:43.710Z,80.20
2022-08-28T23:05:10.481Z,80.30
2022-08-28T23:07:37.155Z,80.20
2022-08-28T23:10:05.344Z,80.20
2022-08-28T23:12:32.216Z,80.20
2022-08-28T23:14:58.868Z,80.20
2022-08-28T23:17:25.618Z,80.10
2022-08-28T23:19:52.634Z,80.30
2022-08-28T23:22:19.406Z,80.30
2022-08-28T23:24:46.998Z,80.20
2022-08-28T23:27:34.872Z,80.00
2022-08-28T23:30:00.510Z,79.90
2022-08-28T23:32:27.183Z,80.40
2022-08-28T23:34:53.902Z,79.80
2022-08-28T23:37:20.610Z,79.70
2022-08-28T23:39:49.273Z,79.50
2022-08-28T23:42:15.985Z,79.50
2022-08-28T23:44:42.839Z,79.60
2022-08-28T23:47:12.307Z,79.50
2022-08-28T23:49:41.592Z,79.50
2022-08-28T23:52:09.647Z,79.60
2022-08-28T23:54:36.849Z,79.50
2022-08-28T23:57:04.460Z,79.40
2022-08-28T23:59:32.654Z,79.50
